createdAt,value
2018-08-24T00:03:58.454Z,99.90
2018-08-24T00:10:03.121Z,99.90
2018-08-24T00:16:07.718Z,99.90
2018-08-24T00:22:12.326Z,99.90
2018-08-24T00:28:16.921Z,99.90
2018-08-24T00:34:21.553Z,99.90
2018-08-24T00:40:26.165Z,99.90
2018-08-24T00:46:30.754Z,99.90
2018-08-24T00:52:35.361Z,99.90
2018-08-24T00:58:40.342Z,99.90
2018-08-24T01:04:44.937Z,99.90
2018-08-24T01:10:49.533Z,99.90
2018-08-24T01:16:59.133Z,99.90
2018-08-24T01:23:03.708Z,99.90
2018-08-24T01:29:08.340Z,99.90
2018-08-24T01:35:12.950Z,99.90
2018-08-24T01:41:17.599Z,99.90
2018-08-24T01:47:22.176Z,99.90
2018-08-24T01:53:26.762Z,99.90
2018-08-24T01:59:31.392Z,99.90
2018-08-24T02:05:35.991Z,99.90
2018-08-24T02:11:40.663Z,99.90
2018-08-24T02:17:50.197Z,99.90
2018-08-24T02:23:54.802Z,99.90
2018-08-24T02:29:59.416Z,99.90
2018-08-24T02:36:04.001Z,99.90
2018-08-24T02:42:08.590Z,99.90
2018-08-24T02:48:13.192Z,99.90
2018-08-24T02:54:17.779Z,99.90
2018-08-24T03:00:22.402Z,99.90
2018-08-24T03:06:26.986Z,99.90
2018-08-24T03:12:31.601Z,99.90
2018-08-24T03:18:36.171Z,99.90
2018-08-24T03:24:40.738Z,99.90
2018-08-24T03:30:45.325Z,99.90
2018-08-24T03:36:49.974Z,99.90
2018-08-24T03:42:54.564Z,99.90
2018-08-24T03:48:59.172Z,99.90
2018-08-24T03:55:03.771Z,99.90
2018-08-24T04:01:08.366Z,99.90
2018-08-24T04:07:12.954Z,99.90
2018-08-24T04:13:17.538Z,99.90
2018-08-24T04:19:28.449Z,99.90
2018-08-24T04:25:33.055Z,99.90
2018-08-24T04:31:37.683Z,99.90
2018-08-24T04:37:42.290Z,99.90
2018-08-24T04:43:46.993Z,99.90
2018-08-24T04:49:51.906Z,99.90
2018-08-24T04:55:56.493Z,99.90
2018-08-24T05:02:01.073Z,99.90
2018-08-24T05:08:05.781Z,99.90
2018-08-24T05:14:11.111Z,99.90
2018-08-24T05:20:15.708Z,99.90
2018-08-24T05:26:20.280Z,99.90
2018-08-24T05:32:24.855Z,99.90
2018-08-24T05:38:29.474Z,99.90
2018-08-24T05:44:34.060Z,99.90
2018-08-24T05:50:38.629Z,99.90
2018-08-24T05:56:43.207Z,99.90
2018-08-24T06:02:48.093Z,99.90
2018-08-24T06:09:26.194Z,99.90
2018-08-24T06:15:30.791Z,99.90
2018-08-24T06:21:35.357Z,99.90
2018-08-24T06:27:39.922Z,99.90
2018-08-24T06:33:44.526Z,99.90
2018-08-24T06:39:49.161Z,99.90
2018-08-24T06:45:53.722Z,99.90
2018-08-24T06:51:58.294Z,99.90
2018-08-24T06:58:02.854Z,99.90
2018-08-24T07:04:07.391Z,99.90
2018-08-24T07:10:11.967Z,99.90
2018-08-24T07:16:16.654Z,99.90
2018-08-24T07:22:21.206Z,99.90
2018-08-24T07:28:25.828Z,99.90
2018-08-24T07:34:30.402Z,99.90
2018-08-24T07:40:35.337Z,99.90
2018-08-24T07:46:40.282Z,99.90
2018-08-24T07:52:44.829Z,99.90
2018-08-24T07:58:49.404Z,99.90
2018-08-24T08:04:54.335Z,99.90
2018-08-24T08:10:58.922Z,99.90
2018-08-24T08:17:03.824Z,99.90
2018-08-24T08:23:08.442Z,99.90
2018-08-24T08:29:17.084Z,99.90
2018-08-24T08:35:21.681Z,99.90
2018-08-24T08:41:27.101Z,99.90
2018-08-24T08:47:31.752Z,99.90
2018-08-24T08:53:36.367Z,99.90
2018-08-24T08:59:40.960Z,99.90
2018-08-24T09:05:45.562Z,99.90
2018-08-24T09:11:50.166Z,99.90
2018-08-24T09:18:00.026Z,99.90
2018-08-24T09:25:08.548Z,99.90
2018-08-24T09:31:18.239Z,99.90
2018-08-24T09:37:28.137Z,99.90
2018-08-24T09:43:37.862Z,99.90
2018-08-24T09:49:42.554Z,99.90
2018-08-24T09:55:47.159Z,99.90
2018-08-24T10:01:56.964Z,99.90
2018-08-24T10:08:06.872Z,99.90
2018-08-24T10:14:11.897Z,99.90
2018-08-24T10:20:16.482Z,99.90
2018-08-24T10:26:21.124Z,99.90
2018-08-24T10:32:25.708Z,99.90
2018-08-24T10:38:30.447Z,99.90
2018-08-24T10:44:35.096Z,99.90
2018-08-24T10:50:39.747Z,99.90
2018-08-24T10:56:44.354Z,99.90
2018-08-24T11:02:48.943Z,99.90
2018-08-24T11:08:53.571Z,99.90
2018-08-24T11:14:58.295Z,99.90
2018-08-24T11:21:02.911Z,99.90
2018-08-24T11:27:07.535Z,99.90
2018-08-24T11:33:12.199Z,99.90
2018-08-24T11:39:16.790Z,99.90
2018-08-24T11:45:21.425Z,99.90
2018-08-24T11:51:25.989Z,99.90
2018-08-24T11:57:30.605Z,99.90
2018-08-24T12:03:35.177Z,99.90
2018-08-24T12:09:39.779Z,99.90
2018-08-24T12:15:44.366Z,97.70
2018-08-24T12:21:48.937Z,98.50
2018-08-24T12:27:53.548Z,97.10
2018-08-24T12:33:58.191Z,97.30
2018-08-24T12:40:02.789Z,93.20
2018-08-24T12:46:08.186Z,92.00
2018-08-24T12:52:12.917Z,92.60
2018-08-24T12:58:17.409Z,89.90
2018-08-24T13:04:22.010Z,90.60
2018-08-24T13:10:26.620Z,88.80
2018-08-24T13:16:31.265Z,86.60
2018-08-24T13:22:35.873Z,84.50
2018-08-24T13:28:40.472Z,83.70
2018-08-24T13:34:45.034Z,81.10
2018-08-24T13:40:49.632Z,80.10
2018-08-24T13:46:54.276Z,86.60
2018-08-24T13:52:58.865Z,84.10
2018-08-24T13:59:03.506Z,83.20
2018-08-24T14:05:08.099Z,79.50
2018-08-24T14:11:12.695Z,81.20
2018-08-24T14:17:17.275Z,81.10
2018-08-24T14:23:21.930Z,77.80
2018-08-24T14:29:26.521Z,78.00
2018-08-24T14:35:31.341Z,79.70
2018-08-24T14:41:35.952Z,75.60
2018-08-24T14:47:40.607Z,78.60
2018-08-24T14:53:45.209Z,80.40
2018-08-24T14:59:49.833Z,72.10
2018-08-24T15:05:57.700Z,67.70
2018-08-24T15:12:02.321Z,70.20
2018-08-24T15:18:06.993Z,70.60
2018-08-24T15:24:11.607Z,71.30
2018-08-24T15:30:16.310Z,69.50
2018-08-24T15:36:20.971Z,60.10
2018-08-24T15:42:25.866Z,60.60
2018-08-24T15:48:30.525Z,57.90
2018-08-24T15:54:35.269Z,55.80
2018-08-24T16:00:39.913Z,53.50
2018-08-24T16:06:44.550Z,53.80
2018-08-24T16:12:49.527Z,56.10
2018-08-24T16:18:54.870Z,56.70
2018-08-24T16:24:59.916Z,56.60
2018-08-24T16:31:04.935Z,56.00
2018-08-24T16:37:10.018Z,55.00
2018-08-24T16:43:15.608Z,57.20
2018-08-24T16:49:20.605Z,58.10
2018-08-24T16:55:25.589Z,54.80
2018-08-24T17:01:30.621Z,56.40
2018-08-24T17:07:35.637Z,56.40
2018-08-24T17:13:40.696Z,57.70
2018-08-24T17:19:46.508Z,59.20
2018-08-24T17:25:51.517Z,60.00
2018-08-24T17:31:56.247Z,62.00
2018-08-24T17:38:01.507Z,63.60
2018-08-24T17:44:06.423Z,64.40
2018-08-24T17:50:12.032Z,64.50
2018-08-24T17:56:17.006Z,64.20
2018-08-24T18:02:22.044Z,63.00
2018-08-24T18:08:27.087Z,63.20
2018-08-24T18:14:32.196Z,64.20
2018-08-24T18:20:37.237Z,65.00
2018-08-24T18:26:42.165Z,65.50
2018-08-24T18:32:47.174Z,64.90
2018-08-24T18:38:52.144Z,66.80
2018-08-24T18:44:57.109Z,66.00
2018-08-24T18:51:02.095Z,66.00
2018-08-24T18:57:07.086Z,66.50
2018-08-24T19:03:11.850Z,68.10
2018-08-24T19:09:16.438Z,67.60
2018-08-24T19:15:21.109Z,69.40
2018-08-24T19:21:30.890Z,69.90
2018-08-24T19:27:40.565Z,71.50
2018-08-24T19:33:45.249Z,72.50
2018-08-24T19:39:55.078Z,72.90
2018-08-24T19:45:59.742Z,72.80
2018-08-24T19:52:04.381Z,73.70
2018-08-24T19:58:14.296Z,74.40
2018-08-24T20:04:18.979Z,75.90
2018-08-24T20:10:23.620Z,75.90
2018-08-24T20:16:33.374Z,76.80
2018-08-24T20:22:38.059Z,77.20
2018-08-24T20:28:42.734Z,77.80
2018-08-24T20:34:48.687Z,79.80
2018-08-24T20:40:53.548Z,80.20
2018-08-24T20:46:59.079Z,80.60
2018-08-24T20:53:04.041Z,81.10
2018-08-24T20:59:08.706Z,82.60
2018-08-24T21:05:13.357Z,81.90
2018-08-24T21:11:18.079Z,82.70
2018-08-24T21:17:22.699Z,82.00
2018-08-24T21:23:27.314Z,83.50
2018-08-24T21:29:31.953Z,84.80
2018-08-24T21:35:36.579Z,85.60
2018-08-24T21:41:41.837Z,84.50
2018-08-24T21:47:46.635Z,85.70
2018-08-24T21:53:51.377Z,86.60
2018-08-24T21:59:56.032Z,87.90
2018-08-24T22:06:00.669Z,90.30
2018-08-24T22:12:05.340Z,90.60
2018-08-24T22:18:09.996Z,91.40
2018-08-24T22:24:14.589Z,92.00
2018-08-24T22:30:19.325Z,92.50
2018-08-24T22:36:23.994Z,93.10
2018-08-24T22:42:28.675Z,93.70
2018-08-24T22:48:33.808Z,93.00
2018-08-24T22:54:38.398Z,94.30
2018-08-24T23:00:43.212Z,94.80
2018-08-24T23:06:47.903Z,95.50
2018-08-24T23:12:52.518Z,95.70
2018-08-24T23:18:57.179Z,96.50
2018-08-24T23:25:01.794Z,96.30
2018-08-24T23:31:06.894Z,97.20
2018-08-24T23:37:11.485Z,97.70
2018-08-24T23:43:16.144Z,97.90
2018-08-24T23:49:20.798Z,98.90
2018-08-24T23:55:25.429Z,98.70
